Thacker, West Virginia
Current Conditions -  °F | °C
As of 1:55 PM on Thursday 30 Oct 2014 (Local Time) from KPBX Reporting Station
Overcast Overcast  
Wind Chill: 46°   Ceiling: 3200
Heat Index: 48°   Visibility: 10mi
Dew Point: 35°   Wind: 5mph
Humidity: 62%   Direction: 360°N
Pressure: 30.1"   Gusts: NA
Location:  37.59°N, 82.13°W
Report Text: KPBX 301755Z AUTO 36004KT 10SM OVC032 09/02 A3010 RMK AO2 T00870017 10090 20026
Loading
Personal Weather Stations






























Interactive Weather Map New forecast layout! Learn more

10-Day Weather Forecast

Advertisements
Track Severe Weather on mobile